This is the latest recevied weather packets stored in our database for station/object K1NOT-WX. If no packets are shown the sender has not sent any weather packets the latest 10 day(s).
| Time | Temp. | Humidity | Pressure | Rain* | Wind** | Luminosity | Snow |
|---|---|---|---|---|---|---|---|
| 1777821132 | 17.78° C | 63% | 1005.8 hPa | 0 mm | - | - | - |
| 1777820232 | 17.78° C | 64% | 1005.8 hPa | 0 mm | - | - | - |
| 1777819332 | 17.22° C | 66% | 1005.8 hPa | 0 mm | - | - | - |
| 1777818432 | 17.22° C | 65% | 1005.8 hPa | 0 mm | - | - | - |
| 1777817532 | 16.11° C | 65% | 1005.4 hPa | 0 mm | - | - | - |
| 1777816632 | 15.56° C | 68% | 1005.8 hPa | 0 mm | - | - | - |
| 1777815732 | 15.56° C | 66% | 1005.4 hPa | 0 mm | - | - | - |
| 1777814832 | 15.56° C | 65% | 1005.4 hPa | 0 mm | - | - | - |
| 1777813932 | 15° C | 68% | 1005.1 hPa | 0 mm | - | - | - |
| 1777813032 | 14.44° C | 70% | 1005.4 hPa | 0 mm | - | - | - |
| 1777812132 | 14.44° C | 73% | 1005.4 hPa | 0 mm | - | - | - |
| 1777811232 | 13.89° C | 77% | 1005.4 hPa | 0 mm | - | - | - |
| 1777810332 | 13.33° C | 78% | 1005.8 hPa | 0 mm | - | - | - |
| 1777809432 | 13.33° C | 78% | 1005.8 hPa | 0 mm | - | - | - |
| 1777808532 | 13.89° C | 76% | 1005.4 hPa | 0 mm | - | - | - |
| 1777807632 | 13.89° C | 76% | 1005.8 hPa | 0 mm | - | - | - |
| 1777806732 | 13.33° C | 73% | 1005.8 hPa | 0 mm | - | - | - |
| 1777805832 | 14.44° C | 69% | 1005.8 hPa | 0 mm | - | - | - |
| 1777804932 | 13.33° C | 71% | 1005.8 hPa | 0 mm | - | - | - |
| 1777804032 | 13.33° C | 71% | 1005.8 hPa | 0 mm | - | - | - |
| 1777803132 | 13.33° C | 69% | 1005.8 hPa | 0 mm | - | - | - |
| 1777802232 | 13.89° C | 67% | 1005.8 hPa | 0 mm | - | - | - |
| 1777801332 | 14.44° C | 65% | 1005.8 hPa | 0 mm | - | - | - |
| 1777800432 | 15° C | 61% | 1005.8 hPa | 0 mm | - | - | - |
| 1777799532 | 14.44° C | 65% | 1005.8 hPa | 0 mm | - | - | - |
* Rain latest hour (hover to see other rain measurements)
** Current wind speed in m/s (hover to see current wind gust speed)